Du har inga inställningar för hoppväder.nu

Hoppväder.nu

Senast uppdaterat 10:53

UTC-tid

2021-06-16 kl. 08:53


Sol och måne

Solen går upp 3:43 och går ner 23:18 (beräknade cirkatider)
Nästa fullmåne blir om 8 dagar (2021-06-24)

METAR

ESOE (Örebro)
(33 minuter sedan)
ESOE 160820Z 22009KT CAVOK 17/10 Q1017=



ESOK (Karlstad)
(33 minuter sedan)
ESOK 160820Z 19009KT CAVOK 16/11 Q1016=



ESGR (Skövde)
(33 minuter sedan)
ESGR 160820Z AUTO /////KT 9999 NCD 17/07 Q1017=



ESSD (Borlänge)
(33 minuter sedan)
ESSD 160820Z 15005KT 110V200 CAVOK 14/06 Q1015=



ESOW (Västerås)
(33 minuter sedan)
ESOW 160820Z 18007KT 140V220 CAVOK 16/10 Q1017=



TAF

ESOE (Örebro)
(203 minuter sedan)
ESOE 160530Z 1606/1608 23010KT CAVOK=



ESOK (Karlstad)
(23 minuter sedan)
ESOK 160830Z 1609/1617 20009KT CAVOK=



ESGR (Skövde)
ESGR



ESSD (Borlänge)
(23 minuter sedan)
ESSD 160830Z 1609/1616 12007KT CAVOK BECMG 1609/1610 22012KT=



ESOW (Västerås)
(23 minuter sedan)
ESOW 160830Z 1609/1617 20008KT CAVOK=





Kodnycklar till TAF och METAR






LHP

(Örebro är område se32g i Delområde 4)

Översikt

ÖVERSIKT FÖR OMRÅDE se3 UTFÄRDAD 160742

GÄLLANDE DEN 16 JUNI 2021 MELLAN 08 OCH 16 UTC


Väderöversikt

En högtrycksrygg täcker södra Sverige.

Sikt under 5 kilometer eller molnbas under 1000 fot
Väntas inte förekomma under perioden.

Måttlig eller svår isbildning
Väntas inte förekomma under perioden

Måttlig eller svår turbulens
Väntas inte förekomma under perioden

Delområde 4

PROGNOS FÖR OMRÅDE se32 UTFÄRDAD 160742
GÄLLANDE DEN 16 JUNI 2021 MELLAN 08 OCH 16 UTC

Måttlig eller svår turbulens
08-16UTC: I hela området: Väntas inte förekomma under perioden

Måttlig eller svår isbildning
08-16UTC: I hela området: Väntas inte förekomma under perioden

Sikt/Väder/Moln
08-16UTC: I hela området: Sikt >8km. Molnbas >2000ft.

Molnöversida
08-10UTC: Område se32a,se32h,se32g,se32f: Molnöversida > FL125.

08-12UTC: Område se32d,se32e: Molnöversida > FL125.

08-16UTC: Område se32c,se32b,se32j,se32i: Ingen prognos

10-16UTC: Område se32a,se32h,se32g,se32f: Ingen prognos

12-16UTC: Område se32d,se32e: Ingen prognos


CB/TCU Moln
08-16UTC: I hela området: Väntas inte förekomma under perioden

Nollgradersisoterm
08-16UTC: Noll grader FL100 - > FL125.

Vind vid marken
08-10UTC: Område se32d: SV/4-10 knop, byar upp till 20 knop.
Område se32g: SV/3-8 knop, byar upp till 18 knop.
Område se32b: S-SV/0-14 knop, byar upp till 20 knop.
Område se32h: SV/4-14 knop, byar upp till 20 knop.
Område se32a: S-SV/2-12 knop, byar upp till 22 knop.
Område se32j: SV-V/4-11 knop, byar upp till 19 knop.
Område se32c: S-SV/3-14 knop, byar upp till 18 knop.
Område se32i: SV-V/4-11 knop, byar upp till 18 knop.
Område se32f,se32e: S-SV/4-9 knop, byar upp till 19 knop.

10-12UTC: Område se32d: SV-V/5-10 knop, byar upp till 22 knop.
Område se32e: SV/4-10 knop, byar upp till 20 knop.
Område se32a: S-SV/4-16 knop, byar upp till 26 knop.
Område se32g: SV/1-11 knop, byar upp till 21 knop.
Område se32j: SV-V/4-10 knop, byar upp till 20 knop.
Område se32b: S/0-18 knop, byar upp till 27 knop.
Område se32h: SV/4-13 knop, byar upp till 21 knop.
Område se32i: SV-V/4-11 knop, byar upp till 20 knop.
Område se32f: SV/4-8 knop, byar upp till 19 knop.
Område se32c: S/0-17 knop, byar upp till 25 knop.

12-14UTC: Område se32b: S/0-17 knop, byar upp till 27 knop.
Område se32d: SV-V/5-13 knop, byar upp till 23 knop.
Område se32a: S-SV/4-18 knop, byar upp till 26 knop.
Område se32c: S/0-17 knop, byar upp till 26 knop.
Område se32i: SV-V/5-11 knop, byar upp till 21 knop.
Område se32e: SV-V/3-11 knop, byar upp till 21 knop.
Område se32g: SV/2-13 knop, byar upp till 23 knop.
Område se32j: SV-V/3-8 knop, byar upp till 18 knop.
Område se32f: SV/4-9 knop, byar upp till 19 knop.
Område se32h: SV-V/4-12 knop, byar upp till 20 knop.

14-16UTC: Område se32a: S-SV/4-16 knop, byar upp till 26 knop.
Område se32d: SV-V/5-14 knop, byar upp till 23 knop.
Område se32g: SV/3-11 knop, byar upp till 24 knop.
Område se32j: SV-V/3-8 knop, byar upp till 17 knop.
Område se32f: S-SV/3-12 knop, byar upp till 23 knop.
Område se32h: SV-V/3-11 knop, byar upp till 19 knop.
Område se32e: SV-V/2-14 knop, byar upp till 21 knop.
Område se32i: V/4-10 knop, byar upp till 19 knop.
Område se32c: S/0-18 knop, byar upp till 23 knop.
Område se32b: S/1-18 knop, byar upp till 24 knop.


Genomsnittlig vind och temperatur för området
2000ft:
08-10UTC: 230/11kt +10.
10-12UTC: 240/10kt +12.
12-14UTC: 240/10kt +13.
14-16UTC: 240/10kt +15.

FL50:
08-10UTC: 260/14kt +6.
10-14UTC: 260/13kt +6.
14-16UTC: 260/14kt +8.

FL100:
08-10UTC: 270/24kt +0.
10-14UTC: 280/25kt +1.
14-16UTC: 280/23kt +2.

Lägsta QNH
1014 hPa.

OBS! endast utbredd måttlig eller svår isbildning och turbulens prognostiseras i LLF.
Avsaknad av isbildning och turbulens i prognosen utesluter inte förekomst av lätt isbildning och turbulens.
För indikation på lätt isbildning, var vänlig kontrollera om prognosen för molntopp ligger högre än nollgradersisotermen.
Förekomst av TCU eller CB medför alltid en risk för måttlig eller svår isbildning och turbulens även om det inte framgår explicit av prognosen.







Spotting

Hur fungerar spotthjälpen och Vindkartan?

Markvind är ca 2-4 m/s med byar på 9 m/s.
Vind på 600 m ca 6 m/s.
Vind på 1500 m ca 7 m/s.
Vind på 3000 m ca 12 m/s.
FXB flyger ca 24 m/s över marken på finalen.
Du driver ca 556 m bakåt i frifall. (741 m)
Lämplig spot är 11 sekunder eller 260 m efter gropen.
(19 s eller 450 m)
För små grupper eller ensamhoppare bör man vänta 6-9 sekunder mellan grupperna.
För större grupper bör man vänta 13-15 sekunder mellan grupperna.


Vindkartan

Senast uppdaterad 10:53




All data kommer från LFV.se